sensor_id;sensor_type;location;lat;lon;timestamp;P1;durP1;ratioP1;P2;durP2;ratioP2
72408;SDS011;60402;48.082;11.628;2022-11-15T00:00:08;5.93;;;2.60;;
72408;SDS011;60402;48.082;11.628;2022-11-15T00:02:38;6.00;;;2.53;;
72408;SDS011;60402;48.082;11.628;2022-11-15T00:07:53;5.15;;;2.33;;
72408;SDS011;60402;48.082;11.628;2022-11-15T00:10:19;5.72;;;2.53;;
72408;SDS011;60402;48.082;11.628;2022-11-15T00:12:47;6.65;;;2.80;;
72408;SDS011;60402;48.082;11.628;2022-11-15T00:15:16;4.85;;;2.13;;
72408;SDS011;60402;48.082;11.628;2022-11-15T00:17:43;5.10;;;2.03;;
72408;SDS011;60402;48.082;11.628;2022-11-15T00:20:12;6.88;;;2.33;;
72408;SDS011;60402;48.082;11.628;2022-11-15T00:22:38;5.25;;;1.95;;
72408;SDS011;60402;48.082;11.628;2022-11-15T00:25:03;4.95;;;2.05;;
72408;SDS011;60402;48.082;11.628;2022-11-15T00:27:30;5.25;;;2.10;;
72408;SDS011;60402;48.082;11.628;2022-11-15T00:30:16;5.57;;;2.35;;
72408;SDS011;60402;48.082;11.628;2022-11-15T00:32:44;4.22;;;2.10;;
72408;SDS011;60402;48.082;11.628;2022-11-15T00:35:20;5.45;;;2.30;;
72408;SDS011;60402;48.082;11.628;2022-11-15T00:37:48;5.32;;;2.10;;
72408;SDS011;60402;48.082;11.628;2022-11-15T00:40:22;4.57;;;1.92;;
72408;SDS011;60402;48.082;11.628;2022-11-15T00:42:49;4.63;;;2.10;;
72408;SDS011;60402;48.082;11.628;2022-11-15T00:45:18;6.43;;;2.28;;
72408;SDS011;60402;48.082;11.628;2022-11-15T00:47:51;5.03;;;2.03;;
72408;SDS011;60402;48.082;11.628;2022-11-15T00:50:17;4.20;;;2.00;;
72408;SDS011;60402;48.082;11.628;2022-11-15T00:52:48;5.53;;;1.98;;
72408;SDS011;60402;48.082;11.628;2022-11-15T00:55:17;4.63;;;2.08;;
72408;SDS011;60402;48.082;11.628;2022-11-15T00:57:49;5.72;;;2.42;;
72408;SDS011;60402;48.082;11.628;2022-11-15T01:00:20;6.47;;;2.30;;
72408;SDS011;60402;48.082;11.628;2022-11-15T01:02:46;5.00;;;2.28;;
72408;SDS011;60402;48.082;11.628;2022-11-15T01:05:16;4.85;;;1.92;;
72408;SDS011;60402;48.082;11.628;2022-11-15T01:07:44;4.10;;;2.05;;
72408;SDS011;60402;48.082;11.628;2022-11-15T01:10:10;5.95;;;2.20;;
72408;SDS011;60402;48.082;11.628;2022-11-15T01:12:38;4.75;;;1.80;;
72408;SDS011;60402;48.082;11.628;2022-11-15T01:15:04;6.85;;;2.30;;
72408;SDS011;60402;48.082;11.628;2022-11-15T01:17:35;4.05;;;2.08;;
72408;SDS011;60402;48.082;11.628;2022-11-15T01:20:17;5.13;;;2.10;;
72408;SDS011;60402;48.082;11.628;2022-11-15T01:22:51;5.53;;;2.10;;
72408;SDS011;60402;48.082;11.628;2022-11-15T01:25:16;4.65;;;1.98;;
72408;SDS011;60402;48.082;11.628;2022-11-15T01:27:47;3.85;;;1.80;;
72408;SDS011;60402;48.082;11.628;2022-11-15T01:30:15;4.70;;;1.98;;
72408;SDS011;60402;48.082;11.628;2022-11-15T01:32:43;5.90;;;2.22;;
72408;SDS011;60402;48.082;11.628;2022-11-15T01:35:08;4.68;;;2.00;;
72408;SDS011;60402;48.082;11.628;2022-11-15T01:40:31;4.90;;;2.33;;
72408;SDS011;60402;48.082;11.628;2022-11-15T01:42:57;4.80;;;1.83;;
72408;SDS011;60402;48.082;11.628;2022-11-15T01:45:47;4.55;;;1.73;;
72408;SDS011;60402;48.082;11.628;2022-11-15T01:48:18;6.10;;;2.10;;
72408;SDS011;60402;48.082;11.628;2022-11-15T01:50:50;4.53;;;1.73;;
72408;SDS011;60402;48.082;11.628;2022-11-15T01:53:20;5.00;;;1.88;;
72408;SDS011;60402;48.082;11.628;2022-11-15T01:55:48;4.70;;;2.00;;
72408;SDS011;60402;48.082;11.628;2022-11-15T01:58:21;7.75;;;2.13;;
72408;SDS011;60402;48.082;11.628;2022-11-15T02:00:47;7.10;;;2.47;;
72408;SDS011;60402;48.082;11.628;2022-11-15T02:03:21;5.18;;;2.03;;
72408;SDS011;60402;48.082;11.628;2022-11-15T02:05:55;4.53;;;2.00;;
72408;SDS011;60402;48.082;11.628;2022-11-15T02:08:23;3.17;;;1.48;;
72408;SDS011;60402;48.082;11.628;2022-11-15T02:10:51;6.20;;;1.98;;
72408;SDS011;60402;48.082;11.628;2022-11-15T02:13:16;4.43;;;1.83;;
72408;SDS011;60402;48.082;11.628;2022-11-15T02:15:56;5.60;;;2.05;;
72408;SDS011;60402;48.082;11.628;2022-11-15T02:18:52;7.10;;;1.70;;
72408;SDS011;60402;48.082;11.628;2022-11-15T02:21:42;3.85;;;1.58;;
72408;SDS011;60402;48.082;11.628;2022-11-15T02:27:31;3.67;;;1.45;;
72408;SDS011;60402;48.082;11.628;2022-11-15T02:38:29;2.92;;;1.30;;
72408;SDS011;60402;48.082;11.628;2022-11-15T02:49:15;5.55;;;1.60;;
72408;SDS011;60402;48.082;11.628;2022-11-15T02:51:41;3.53;;;1.52;;
72408;SDS011;60402;48.082;11.628;2022-11-15T03:00:25;3.15;;;1.60;;
72408;SDS011;60402;48.082;11.628;2022-11-15T03:05:44;4.07;;;1.50;;
72408;SDS011;60402;48.082;11.628;2022-11-15T03:11:32;2.90;;;1.40;;
72408;SDS011;60402;48.082;11.628;2022-11-15T03:19:37;3.30;;;1.45;;
72408;SDS011;60402;48.082;11.628;2022-11-15T03:22:12;4.22;;;1.60;;
72408;SDS011;60402;48.082;11.628;2022-11-15T03:24:44;3.40;;;1.65;;
72408;SDS011;60402;48.082;11.628;2022-11-15T03:27:18;3.00;;;1.55;;
72408;SDS011;60402;48.082;11.628;2022-11-15T03:29:49;3.08;;;1.67;;
72408;SDS011;60402;48.082;11.628;2022-11-15T03:32:19;4.18;;;1.60;;
72408;SDS011;60402;48.082;11.628;2022-11-15T03:37:51;5.18;;;1.63;;
72408;SDS011;60402;48.082;11.628;2022-11-15T03:40:30;4.00;;;1.63;;
72408;SDS011;60402;48.082;11.628;2022-11-15T03:46:01;3.42;;;1.42;;
72408;SDS011;60402;48.082;11.628;2022-11-15T03:48:43;4.05;;;1.40;;
72408;SDS011;60402;48.082;11.628;2022-11-15T03:51:18;4.47;;;1.90;;
72408;SDS011;60402;48.082;11.628;2022-11-15T03:53:50;5.93;;;1.83;;
72408;SDS011;60402;48.082;11.628;2022-11-15T03:56:18;3.35;;;1.30;;
72408;SDS011;60402;48.082;11.628;2022-11-15T03:58:49;3.33;;;1.50;;
72408;SDS011;60402;48.082;11.628;2022-11-15T04:01:21;3.10;;;1.75;;
72408;SDS011;60402;48.082;11.628;2022-11-15T04:03:52;3.97;;;1.55;;
72408;SDS011;60402;48.082;11.628;2022-11-15T04:06:17;3.30;;;1.55;;
72408;SDS011;60402;48.082;11.628;2022-11-15T04:08:43;4.25;;;1.50;;
72408;SDS011;60402;48.082;11.628;2022-11-15T04:11:08;2.50;;;1.20;;
72408;SDS011;60402;48.082;11.628;2022-11-15T04:13:36;3.20;;;1.40;;
72408;SDS011;60402;48.082;11.628;2022-11-15T04:16:02;3.95;;;1.70;;
72408;SDS011;60402;48.082;11.628;2022-11-15T04:18:28;3.92;;;1.63;;
72408;SDS011;60402;48.082;11.628;2022-11-15T04:20:53;3.55;;;1.50;;
72408;SDS011;60402;48.082;11.628;2022-11-15T04:23:37;4.20;;;1.70;;
72408;SDS011;60402;48.082;11.628;2022-11-15T04:26:53;3.40;;;1.42;;
72408;SDS011;60402;48.082;11.628;2022-11-15T04:29:20;3.58;;;1.33;;
72408;SDS011;60402;48.082;11.628;2022-11-15T04:32:04;2.45;;;1.30;;
72408;SDS011;60402;48.082;11.628;2022-11-15T04:34:31;5.47;;;1.80;;
72408;SDS011;60402;48.082;11.628;2022-11-15T04:36:57;3.25;;;1.23;;
72408;SDS011;60402;48.082;11.628;2022-11-15T04:39:39;3.38;;;1.25;;
72408;SDS011;60402;48.082;11.628;2022-11-15T04:42:05;3.42;;;1.60;;
72408;SDS011;60402;48.082;11.628;2022-11-15T04:44:30;3.28;;;1.50;;
72408;SDS011;60402;48.082;11.628;2022-11-15T04:46:56;3.42;;;1.50;;
72408;SDS011;60402;48.082;11.628;2022-11-15T04:49:21;3.92;;;1.65;;
72408;SDS011;60402;48.082;11.628;2022-11-15T04:51:46;3.50;;;1.33;;
72408;SDS011;60402;48.082;11.628;2022-11-15T04:54:12;3.20;;;1.33;;
72408;SDS011;60402;48.082;11.628;2022-11-15T04:56:37;2.95;;;1.30;;
72408;SDS011;60402;48.082;11.628;2022-11-15T04:59:02;3.88;;;1.40;;
72408;SDS011;60402;48.082;11.628;2022-11-15T05:01:28;7.95;;;2.58;;
72408;SDS011;60402;48.082;11.628;2022-11-15T05:03:53;4.75;;;1.88;;
72408;SDS011;60402;48.082;11.628;2022-11-15T05:06:37;3.38;;;1.45;;
72408;SDS011;60402;48.082;11.628;2022-11-15T05:09:02;5.60;;;1.30;;
72408;SDS011;60402;48.082;11.628;2022-11-15T05:11:28;2.85;;;1.17;;
72408;SDS011;60402;48.082;11.628;2022-11-15T05:13:53;3.15;;;1.23;;
72408;SDS011;60402;48.082;11.628;2022-11-15T05:16:19;3.60;;;1.50;;
72408;SDS011;60402;48.082;11.628;2022-11-15T05:18:44;3.55;;;1.52;;
72408;SDS011;60402;48.082;11.628;2022-11-15T05:21:10;2.25;;;1.35;;
72408;SDS011;60402;48.082;11.628;2022-11-15T05:23:37;3.00;;;1.30;;
72408;SDS011;60402;48.082;11.628;2022-11-15T05:26:04;3.50;;;1.33;;
72408;SDS011;60402;48.082;11.628;2022-11-15T05:28:31;3.67;;;1.55;;
72408;SDS011;60402;48.082;11.628;2022-11-15T05:31:03;3.75;;;1.48;;
72408;SDS011;60402;48.082;11.628;2022-11-15T05:33:35;3.60;;;1.45;;
72408;SDS011;60402;48.082;11.628;2022-11-15T05:36:03;3.58;;;1.27;;
72408;SDS011;60402;48.082;11.628;2022-11-15T05:38:32;1.60;;;1.02;;
72408;SDS011;60402;48.082;11.628;2022-11-15T05:40:59;3.85;;;1.40;;
72408;SDS011;60402;48.082;11.628;2022-11-15T05:43:25;4.30;;;1.40;;
72408;SDS011;60402;48.082;11.628;2022-11-15T05:45:51;2.65;;;1.20;;
72408;SDS011;60402;48.082;11.628;2022-11-15T05:48:17;3.10;;;1.30;;
72408;SDS011;60402;48.082;11.628;2022-11-15T05:50:43;4.50;;;1.65;;
72408;SDS011;60402;48.082;11.628;2022-11-15T05:53:11;3.22;;;1.33;;
72408;SDS011;60402;48.082;11.628;2022-11-15T05:55:39;2.60;;;1.20;;
72408;SDS011;60402;48.082;11.628;2022-11-15T05:58:05;3.47;;;1.50;;
72408;SDS011;60402;48.082;11.628;2022-11-15T06:00:31;3.60;;;1.50;;
72408;SDS011;60402;48.082;11.628;2022-11-15T06:02:56;4.07;;;1.30;;
72408;SDS011;60402;48.082;11.628;2022-11-15T06:05:22;4.63;;;1.75;;
72408;SDS011;60402;48.082;11.628;2022-11-15T06:07:47;3.55;;;1.50;;
72408;SDS011;60402;48.082;11.628;2022-11-15T06:10:12;3.25;;;1.30;;
72408;SDS011;60402;48.082;11.628;2022-11-15T06:12:38;3.13;;;1.10;;
72408;SDS011;60402;48.082;11.628;2022-11-15T06:15:03;2.95;;;1.20;;
72408;SDS011;60402;48.082;11.628;2022-11-15T06:17:28;5.35;;;1.60;;
72408;SDS011;60402;48.082;11.628;2022-11-15T06:19:54;4.30;;;1.48;;
72408;SDS011;60402;48.082;11.628;2022-11-15T06:22:19;2.47;;;1.30;;
72408;SDS011;60402;48.082;11.628;2022-11-15T06:24:44;4.17;;;1.77;;
72408;SDS011;60402;48.082;11.628;2022-11-15T06:27:10;4.07;;;1.20;;
72408;SDS011;60402;48.082;11.628;2022-11-15T06:29:36;3.03;;;1.50;;
72408;SDS011;60402;48.082;11.628;2022-11-15T06:32:01;3.78;;;1.50;;
72408;SDS011;60402;48.082;11.628;2022-11-15T06:34:27;3.50;;;1.45;;
72408;SDS011;60402;48.082;11.628;2022-11-15T06:36:52;3.15;;;1.33;;
72408;SDS011;60402;48.082;11.628;2022-11-15T06:39:18;4.75;;;1.65;;
72408;SDS011;60402;48.082;11.628;2022-11-15T06:41:43;5.53;;;1.77;;
72408;SDS011;60402;48.082;11.628;2022-11-15T06:44:08;4.07;;;1.40;;
72408;SDS011;60402;48.082;11.628;2022-11-15T06:46:34;2.33;;;1.20;;
72408;SDS011;60402;48.082;11.628;2022-11-15T06:49:02;3.28;;;1.15;;
72408;SDS011;60402;48.082;11.628;2022-11-15T06:51:27;3.55;;;1.40;;
72408;SDS011;60402;48.082;11.628;2022-11-15T06:53:53;3.38;;;1.50;;
72408;SDS011;60402;48.082;11.628;2022-11-15T06:56:18;2.67;;;1.50;;
72408;SDS011;60402;48.082;11.628;2022-11-15T06:58:43;3.67;;;1.42;;
72408;SDS011;60402;48.082;11.628;2022-11-15T07:01:09;4.53;;;2.08;;
72408;SDS011;60402;48.082;11.628;2022-11-15T07:03:37;4.32;;;1.70;;
72408;SDS011;60402;48.082;11.628;2022-11-15T07:06:03;3.92;;;1.60;;
72408;SDS011;60402;48.082;11.628;2022-11-15T07:08:29;4.65;;;1.55;;
72408;SDS011;60402;48.082;11.628;2022-11-15T07:10:57;3.58;;;1.40;;
72408;SDS011;60402;48.082;11.628;2022-11-15T07:15:50;4.57;;;1.65;;
72408;SDS011;60402;48.082;11.628;2022-11-15T07:18:16;4.38;;;1.33;;
72408;SDS011;60402;48.082;11.628;2022-11-15T07:20:41;3.27;;;1.67;;
72408;SDS011;60402;48.082;11.628;2022-11-15T07:23:06;4.50;;;1.53;;
72408;SDS011;60402;48.082;11.628;2022-11-15T07:25:32;3.45;;;1.50;;
72408;SDS011;60402;48.082;11.628;2022-11-15T07:27:57;4.68;;;1.42;;
72408;SDS011;60402;48.082;11.628;2022-11-15T07:30:24;4.40;;;1.63;;
72408;SDS011;60402;48.082;11.628;2022-11-15T07:32:54;4.20;;;1.52;;
72408;SDS011;60402;48.082;11.628;2022-11-15T07:35:20;4.97;;;1.90;;
72408;SDS011;60402;48.082;11.628;2022-11-15T07:37:52;12.63;;;5.22;;
72408;SDS011;60402;48.082;11.628;2022-11-15T07:40:28;15.25;;;5.85;;
72408;SDS011;60402;48.082;11.628;2022-11-15T07:42:58;11.25;;;4.03;;
72408;SDS011;60402;48.082;11.628;2022-11-15T07:45:28;9.52;;;3.22;;
72408;SDS011;60402;48.082;11.628;2022-11-15T07:47:53;6.40;;;2.47;;
72408;SDS011;60402;48.082;11.628;2022-11-15T07:50:20;7.10;;;2.70;;
72408;SDS011;60402;48.082;11.628;2022-11-15T07:52:53;4.95;;;2.05;;
72408;SDS011;60402;48.082;11.628;2022-11-15T07:55:19;3.80;;;1.55;;
72408;SDS011;60402;48.082;11.628;2022-11-15T07:57:45;4.28;;;1.55;;
72408;SDS011;60402;48.082;11.628;2022-11-15T08:00:10;5.97;;;1.63;;
72408;SDS011;60402;48.082;11.628;2022-11-15T08:02:36;1.95;;;1.20;;
72408;SDS011;60402;48.082;11.628;2022-11-15T08:05:01;3.17;;;1.40;;
72408;SDS011;60402;48.082;11.628;2022-11-15T08:07:30;2.47;;;1.15;;
72408;SDS011;60402;48.082;11.628;2022-11-15T08:09:56;2.47;;;1.10;;
72408;SDS011;60402;48.082;11.628;2022-11-15T08:12:22;3.63;;;1.27;;
72408;SDS011;60402;48.082;11.628;2022-11-15T08:14:47;2.17;;;1.20;;
72408;SDS011;60402;48.082;11.628;2022-11-15T08:17:13;3.75;;;1.30;;
72408;SDS011;60402;48.082;11.628;2022-11-15T08:19:38;5.05;;;1.40;;
72408;SDS011;60402;48.082;11.628;2022-11-15T08:22:04;2.90;;;1.20;;
72408;SDS011;60402;48.082;11.628;2022-11-15T08:24:29;3.80;;;1.80;;
72408;SDS011;60402;48.082;11.628;2022-11-15T08:26:54;3.63;;;1.53;;
72408;SDS011;60402;48.082;11.628;2022-11-15T08:29:20;4.05;;;1.60;;
72408;SDS011;60402;48.082;11.628;2022-11-15T08:31:45;4.15;;;1.70;;
72408;SDS011;60402;48.082;11.628;2022-11-15T08:34:10;6.20;;;2.13;;
72408;SDS011;60402;48.082;11.628;2022-11-15T08:36:36;4.82;;;1.98;;
72408;SDS011;60402;48.082;11.628;2022-11-15T08:39:01;7.40;;;2.55;;
72408;SDS011;60402;48.082;11.628;2022-11-15T08:41:28;6.90;;;2.50;;
72408;SDS011;60402;48.082;11.628;2022-11-15T08:43:56;6.40;;;2.40;;
72408;SDS011;60402;48.082;11.628;2022-11-15T08:46:21;5.60;;;2.17;;
72408;SDS011;60402;48.082;11.628;2022-11-15T08:48:47;8.02;;;2.40;;
72408;SDS011;60402;48.082;11.628;2022-11-15T08:51:12;4.27;;;1.90;;
72408;SDS011;60402;48.082;11.628;2022-11-15T08:53:38;6.00;;;2.00;;
72408;SDS011;60402;48.082;11.628;2022-11-15T08:56:06;6.03;;;2.17;;
72408;SDS011;60402;48.082;11.628;2022-11-15T08:58:33;4.15;;;1.90;;
72408;SDS011;60402;48.082;11.628;2022-11-15T09:00:58;6.18;;;2.58;;
72408;SDS011;60402;48.082;11.628;2022-11-15T09:03:23;4.65;;;1.90;;
72408;SDS011;60402;48.082;11.628;2022-11-15T09:05:53;7.50;;;2.35;;
72408;SDS011;60402;48.082;11.628;2022-11-15T09:08:20;5.70;;;2.20;;
72408;SDS011;60402;48.082;11.628;2022-11-15T09:10:45;4.45;;;2.40;;
72408;SDS011;60402;48.082;11.628;2022-11-15T09:13:11;6.22;;;3.00;;
72408;SDS011;60402;48.082;11.628;2022-11-15T09:15:36;7.70;;;3.30;;
72408;SDS011;60402;48.082;11.628;2022-11-15T09:18:01;6.30;;;2.65;;
72408;SDS011;60402;48.082;11.628;2022-11-15T09:20:27;6.13;;;2.10;;
72408;SDS011;60402;48.082;11.628;2022-11-15T09:22:52;5.05;;;2.08;;
72408;SDS011;60402;48.082;11.628;2022-11-15T09:25:18;7.40;;;2.40;;
72408;SDS011;60402;48.082;11.628;2022-11-15T09:27:43;4.80;;;2.13;;
72408;SDS011;60402;48.082;11.628;2022-11-15T09:30:08;5.55;;;2.20;;
72408;SDS011;60402;48.082;11.628;2022-11-15T09:32:34;3.90;;;1.88;;
72408;SDS011;60402;48.082;11.628;2022-11-15T09:35:00;9.13;;;1.92;;
72408;SDS011;60402;48.082;11.628;2022-11-15T09:37:26;4.45;;;2.15;;
72408;SDS011;60402;48.082;11.628;2022-11-15T09:39:51;4.47;;;1.95;;
72408;SDS011;60402;48.082;11.628;2022-11-15T09:47:43;3.85;;;1.90;;
72408;SDS011;60402;48.082;11.628;2022-11-15T09:53:11;7.63;;;2.22;;
72408;SDS011;60402;48.082;11.628;2022-11-15T09:55:54;5.30;;;2.40;;
72408;SDS011;60402;48.082;11.628;2022-11-15T09:58:36;6.10;;;2.03;;
72408;SDS011;60402;48.082;11.628;2022-11-15T10:01:15;6.05;;;1.75;;
72408;SDS011;60402;48.082;11.628;2022-11-15T10:03:45;3.42;;;1.65;;
72408;SDS011;60402;48.082;11.628;2022-11-15T10:06:18;6.07;;;2.23;;
72408;SDS011;60402;48.082;11.628;2022-11-15T10:14:41;4.03;;;1.73;;
72408;SDS011;60402;48.082;11.628;2022-11-15T10:17:15;2.60;;;1.30;;
72408;SDS011;60402;48.082;11.628;2022-11-15T10:22:47;2.97;;;1.48;;
72408;SDS011;60402;48.082;11.628;2022-11-15T10:25:22;2.47;;;1.35;;
72408;SDS011;60402;48.082;11.628;2022-11-15T10:28:00;3.33;;;1.27;;
72408;SDS011;60402;48.082;11.628;2022-11-15T10:30:35;4.50;;;1.52;;
72408;SDS011;60402;48.082;11.628;2022-11-15T10:35:49;3.47;;;1.33;;
72408;SDS011;60402;48.082;11.628;2022-11-15T10:39:10;3.05;;;1.60;;
72408;SDS011;60402;48.082;11.628;2022-11-15T10:46:31;2.88;;;1.40;;
72408;SDS011;60402;48.082;11.628;2022-11-15T10:51:54;3.83;;;1.40;;
72408;SDS011;60402;48.082;11.628;2022-11-15T10:57:00;4.78;;;1.60;;
72408;SDS011;60402;48.082;11.628;2022-11-15T10:59:33;5.38;;;1.60;;
72408;SDS011;60402;48.082;11.628;2022-11-15T11:02:02;3.25;;;1.55;;
72408;SDS011;60402;48.082;11.628;2022-11-15T11:04:27;6.00;;;1.90;;
72408;SDS011;60402;48.082;11.628;2022-11-15T11:06:56;5.10;;;1.65;;
72408;SDS011;60402;48.082;11.628;2022-11-15T11:12:09;3.70;;;1.52;;
72408;SDS011;60402;48.082;11.628;2022-11-15T11:24:47;3.95;;;1.70;;
72408;SDS011;60402;48.082;11.628;2022-11-15T11:27:26;3.40;;;1.33;;
72408;SDS011;60402;48.082;11.628;2022-11-15T11:30:08;3.38;;;1.30;;
72408;SDS011;60402;48.082;11.628;2022-11-15T11:41:10;9.88;;;3.45;;
72408;SDS011;60402;48.082;11.628;2022-11-15T11:49:09;3.58;;;1.50;;
72408;SDS011;60402;48.082;11.628;2022-11-15T11:51:45;16.35;;;7.75;;
72408;SDS011;60402;48.082;11.628;2022-11-15T11:54:19;5.03;;;2.10;;
72408;SDS011;60402;48.082;11.628;2022-11-15T11:56:50;4.43;;;1.48;;
72408;SDS011;60402;48.082;11.628;2022-11-15T12:01:46;3.95;;;1.50;;
72408;SDS011;60402;48.082;11.628;2022-11-15T12:04:24;4.53;;;1.50;;
72408;SDS011;60402;48.082;11.628;2022-11-15T12:07:01;4.32;;;1.67;;
72408;SDS011;60402;48.082;11.628;2022-11-15T12:09:43;3.40;;;1.30;;
72408;SDS011;60402;48.082;11.628;2022-11-15T12:12:27;3.83;;;1.50;;
72408;SDS011;60402;48.082;11.628;2022-11-15T12:17:34;3.83;;;1.38;;
72408;SDS011;60402;48.082;11.628;2022-11-15T12:20:06;2.95;;;1.30;;
72408;SDS011;60402;48.082;11.628;2022-11-15T12:22:56;3.95;;;1.55;;
72408;SDS011;60402;48.082;11.628;2022-11-15T12:25:31;5.60;;;2.40;;
72408;SDS011;60402;48.082;11.628;2022-11-15T12:31:14;2.70;;;1.20;;
72408;SDS011;60402;48.082;11.628;2022-11-15T12:33:45;3.05;;;1.73;;
72408;SDS011;60402;48.082;11.628;2022-11-15T12:38:52;3.95;;;1.67;;
72408;SDS011;60402;48.082;11.628;2022-11-15T12:41:19;2.67;;;1.20;;
72408;SDS011;60402;48.082;11.628;2022-11-15T12:43:45;4.95;;;1.85;;
72408;SDS011;60402;48.082;11.628;2022-11-15T13:17:44;3.70;;;1.20;;
72408;SDS011;60402;48.082;11.628;2022-11-15T13:28:00;3.60;;;1.70;;
72408;SDS011;60402;48.082;11.628;2022-11-15T13:30:26;3.15;;;1.50;;
72408;SDS011;60402;48.082;11.628;2022-11-15T13:32:54;3.47;;;1.52;;
72408;SDS011;60402;48.082;11.628;2022-11-15T13:35:26;3.65;;;1.45;;
72408;SDS011;60402;48.082;11.628;2022-11-15T13:37:54;3.15;;;1.30;;
72408;SDS011;60402;48.082;11.628;2022-11-15T13:40:35;3.30;;;1.50;;
72408;SDS011;60402;48.082;11.628;2022-11-15T13:43:17;4.50;;;1.50;;
72408;SDS011;60402;48.082;11.628;2022-11-15T13:46:23;4.72;;;1.73;;
72408;SDS011;60402;48.082;11.628;2022-11-15T13:48:45;2.13;;;1.00;;
72408;SDS011;60402;48.082;11.628;2022-11-15T13:51:21;3.85;;;1.50;;
72408;SDS011;60402;48.082;11.628;2022-11-15T13:53:56;3.30;;;1.40;;
72408;SDS011;60402;48.082;11.628;2022-11-15T13:56:26;3.97;;;1.80;;
72408;SDS011;60402;48.082;11.628;2022-11-15T13:58:54;3.15;;;1.50;;
72408;SDS011;60402;48.082;11.628;2022-11-15T14:01:20;4.88;;;1.83;;
72408;SDS011;60402;48.082;11.628;2022-11-15T14:03:54;3.40;;;1.73;;
72408;SDS011;60402;48.082;11.628;2022-11-15T14:06:25;4.82;;;1.65;;
72408;SDS011;60402;48.082;11.628;2022-11-15T14:11:24;3.03;;;1.67;;
72408;SDS011;60402;48.082;11.628;2022-11-15T14:16:37;3.95;;;1.65;;
72408;SDS011;60402;48.082;11.628;2022-11-15T14:19:04;5.72;;;1.98;;
72408;SDS011;60402;48.082;11.628;2022-11-15T14:21:31;4.95;;;1.70;;
72408;SDS011;60402;48.082;11.628;2022-11-15T14:24:30;4.40;;;1.70;;
72408;SDS011;60402;48.082;11.628;2022-11-15T14:26:54;3.53;;;1.48;;
72408;SDS011;60402;48.082;11.628;2022-11-15T14:29:26;3.75;;;1.55;;
72408;SDS011;60402;48.082;11.628;2022-11-15T14:31:54;3.65;;;1.35;;
72408;SDS011;60402;48.082;11.628;2022-11-15T14:34:37;3.30;;;1.45;;
72408;SDS011;60402;48.082;11.628;2022-11-15T14:37:02;4.65;;;2.25;;
72408;SDS011;60402;48.082;11.628;2022-11-15T14:39:27;4.60;;;1.80;;
72408;SDS011;60402;48.082;11.628;2022-11-15T14:41:53;4.40;;;1.92;;
72408;SDS011;60402;48.082;11.628;2022-11-15T14:44:18;3.63;;;1.60;;
72408;SDS011;60402;48.082;11.628;2022-11-15T14:49:33;4.85;;;1.70;;
72408;SDS011;60402;48.082;11.628;2022-11-15T14:52:01;4.68;;;1.60;;
72408;SDS011;60402;48.082;11.628;2022-11-15T14:57:45;3.67;;;1.52;;
72408;SDS011;60402;48.082;11.628;2022-11-15T15:00:20;2.60;;;1.38;;
72408;SDS011;60402;48.082;11.628;2022-11-15T15:02:51;4.63;;;1.45;;
72408;SDS011;60402;48.082;11.628;2022-11-15T15:05:27;3.92;;;1.50;;
72408;SDS011;60402;48.082;11.628;2022-11-15T15:07:57;3.65;;;1.42;;
72408;SDS011;60402;48.082;11.628;2022-11-15T15:10:44;4.20;;;1.55;;
72408;SDS011;60402;48.082;11.628;2022-11-15T15:13:15;3.53;;;1.30;;
72408;SDS011;60402;48.082;11.628;2022-11-15T15:16:05;5.43;;;1.77;;
72408;SDS011;60402;48.082;11.628;2022-11-15T15:18:31;3.35;;;1.23;;
72408;SDS011;60402;48.082;11.628;2022-11-15T15:20:57;2.90;;;1.40;;
72408;SDS011;60402;48.082;11.628;2022-11-15T15:23:31;5.85;;;1.52;;
72408;SDS011;60402;48.082;11.628;2022-11-15T15:25:57;4.93;;;1.70;;
72408;SDS011;60402;48.082;11.628;2022-11-15T15:28:23;6.32;;;1.70;;
72408;SDS011;60402;48.082;11.628;2022-11-15T15:30:48;5.68;;;1.77;;
72408;SDS011;60402;48.082;11.628;2022-11-15T15:33:14;8.00;;;1.90;;
72408;SDS011;60402;48.082;11.628;2022-11-15T15:35:40;4.97;;;1.88;;
72408;SDS011;60402;48.082;11.628;2022-11-15T15:38:05;7.78;;;2.97;;
72408;SDS011;60402;48.082;11.628;2022-11-15T15:40:31;6.53;;;2.30;;
72408;SDS011;60402;48.082;11.628;2022-11-15T15:42:58;8.50;;;2.20;;
72408;SDS011;60402;48.082;11.628;2022-11-15T15:45:24;6.13;;;1.80;;
72408;SDS011;60402;48.082;11.628;2022-11-15T15:47:50;5.22;;;1.75;;
72408;SDS011;60402;48.082;11.628;2022-11-15T15:50:22;5.82;;;1.90;;
72408;SDS011;60402;48.082;11.628;2022-11-15T15:52:52;3.85;;;1.85;;
72408;SDS011;60402;48.082;11.628;2022-11-15T15:55:19;6.97;;;2.55;;
72408;SDS011;60402;48.082;11.628;2022-11-15T15:57:45;5.35;;;2.08;;
72408;SDS011;60402;48.082;11.628;2022-11-15T16:00:11;6.53;;;2.80;;
72408;SDS011;60402;48.082;11.628;2022-11-15T16:02:37;6.32;;;2.92;;
72408;SDS011;60402;48.082;11.628;2022-11-15T16:05:03;9.00;;;3.38;;
72408;SDS011;60402;48.082;11.628;2022-11-15T16:07:28;6.47;;;2.92;;
72408;SDS011;60402;48.082;11.628;2022-11-15T16:09:54;6.70;;;2.63;;
72408;SDS011;60402;48.082;11.628;2022-11-15T16:12:33;7.30;;;3.22;;
72408;SDS011;60402;48.082;11.628;2022-11-15T16:14:59;9.70;;;3.70;;
72408;SDS011;60402;48.082;11.628;2022-11-15T16:17:26;6.78;;;2.97;;
72408;SDS011;60402;48.082;11.628;2022-11-15T16:19:57;7.55;;;3.40;;
72408;SDS011;60402;48.082;11.628;2022-11-15T16:22:23;8.95;;;3.80;;
72408;SDS011;60402;48.082;11.628;2022-11-15T16:24:48;8.52;;;3.85;;
72408;SDS011;60402;48.082;11.628;2022-11-15T16:27:14;10.63;;;4.05;;
72408;SDS011;60402;48.082;11.628;2022-11-15T16:29:41;9.05;;;3.72;;
72408;SDS011;60402;48.082;11.628;2022-11-15T16:32:07;6.55;;;3.35;;
72408;SDS011;60402;48.082;11.628;2022-11-15T16:34:32;6.68;;;3.30;;
72408;SDS011;60402;48.082;11.628;2022-11-15T16:36:58;7.90;;;3.30;;
72408;SDS011;60402;48.082;11.628;2022-11-15T16:39:24;8.18;;;3.67;;
72408;SDS011;60402;48.082;11.628;2022-11-15T16:41:49;9.68;;;3.80;;
72408;SDS011;60402;48.082;11.628;2022-11-15T16:44:15;9.00;;;3.40;;
72408;SDS011;60402;48.082;11.628;2022-11-15T16:46:40;8.52;;;3.63;;
72408;SDS011;60402;48.082;11.628;2022-11-15T16:49:13;10.45;;;3.05;;
72408;SDS011;60402;48.082;11.628;2022-11-15T16:51:39;9.77;;;3.35;;
72408;SDS011;60402;48.082;11.628;2022-11-15T16:54:05;9.52;;;4.25;;
72408;SDS011;60402;48.082;11.628;2022-11-15T16:56:31;7.10;;;3.65;;
72408;SDS011;60402;48.082;11.628;2022-11-15T16:58:57;10.23;;;4.43;;
72408;SDS011;60402;48.082;11.628;2022-11-15T17:01:28;10.00;;;4.30;;
72408;SDS011;60402;48.082;11.628;2022-11-15T17:03:58;7.47;;;3.70;;
72408;SDS011;60402;48.082;11.628;2022-11-15T17:06:24;8.20;;;3.90;;
72408;SDS011;60402;48.082;11.628;2022-11-15T17:08:50;12.38;;;4.38;;
72408;SDS011;60402;48.082;11.628;2022-11-15T17:11:17;8.32;;;3.40;;
72408;SDS011;60402;48.082;11.628;2022-11-15T17:13:44;7.43;;;4.00;;
72408;SDS011;60402;48.082;11.628;2022-11-15T17:16:11;6.45;;;3.17;;
72408;SDS011;60402;48.082;11.628;2022-11-15T17:18:38;7.68;;;3.38;;
72408;SDS011;60402;48.082;11.628;2022-11-15T17:21:14;7.90;;;4.20;;
72408;SDS011;60402;48.082;11.628;2022-11-15T17:23:41;9.35;;;3.40;;
72408;SDS011;60402;48.082;11.628;2022-11-15T17:26:08;10.55;;;3.90;;
72408;SDS011;60402;48.082;11.628;2022-11-15T17:28:35;8.20;;;3.30;;
72408;SDS011;60402;48.082;11.628;2022-11-15T17:31:04;9.40;;;3.40;;
72408;SDS011;60402;48.082;11.628;2022-11-15T17:33:31;8.55;;;3.33;;
72408;SDS011;60402;48.082;11.628;2022-11-15T17:35:57;6.03;;;3.20;;